createdAt,value
2023-02-11T00:01:37.884Z,21.33
2023-02-11T00:04:08.287Z,21.80
2023-02-11T00:06:37.639Z,21.07
2023-02-11T00:09:06.630Z,21.67
2023-02-11T00:11:35.381Z,23.63
2023-02-11T00:14:08.914Z,21.33
2023-02-11T00:16:37.278Z,21.60
2023-02-11T00:19:06.481Z,19.97
2023-02-11T00:21:36.487Z,20.40
2023-02-11T00:24:05.449Z,21.10
2023-02-11T00:26:40.845Z,20.80
2023-02-11T00:29:11.900Z,20.07
2023-02-11T00:31:42.114Z,20.93
2023-02-11T00:34:10.369Z,20.27
2023-02-11T00:36:40.136Z,19.27
2023-02-11T00:39:09.978Z,20.50
2023-02-11T00:41:38.193Z,20.67
2023-02-11T00:44:06.614Z,22.17
2023-02-11T00:46:36.257Z,18.83
2023-02-11T00:49:04.493Z,21.50
2023-02-11T00:51:32.719Z,21.97
2023-02-11T00:54:00.890Z,22.67
2023-02-11T00:56:29.126Z,25.10
2023-02-11T00:58:57.687Z,26.47
2023-02-11T01:01:26.872Z,26.27
2023-02-11T01:03:56.533Z,23.10
2023-02-11T01:06:25.071Z,22.73
2023-02-11T01:08:53.495Z,24.37
2023-02-11T01:11:23.062Z,26.13
2023-02-11T01:13:52.090Z,28.40
2023-02-11T01:16:21.810Z,24.17
2023-02-11T01:18:50.378Z,22.93
2023-02-11T01:21:20.467Z,23.20
2023-02-11T01:23:48.712Z,20.97
2023-02-11T01:26:17.084Z,20.93
2023-02-11T01:28:45.310Z,20.90
2023-02-11T01:31:13.635Z,20.73
2023-02-11T01:33:41.987Z,21.77
2023-02-11T01:36:14.276Z,21.30
2023-02-11T01:38:44.653Z,19.63
2023-02-11T01:41:15.708Z,19.93
2023-02-11T01:43:46.683Z,20.23
2023-02-11T01:46:35.383Z,19.07
2023-02-11T01:49:10.967Z,22.07
2023-02-11T01:51:43.275Z,20.57
2023-02-11T01:54:37.476Z,21.10
2023-02-11T01:57:25.466Z,25.40
2023-02-11T02:00:09.545Z,27.23
2023-02-11T02:02:55.668Z,25.63
2023-02-11T02:05:32.438Z,23.33
2023-02-11T02:08:11.139Z,22.63
2023-02-11T02:10:45.710Z,22.80
2023-02-11T02:13:15.686Z,22.93
2023-02-11T02:15:50.376Z,23.33
2023-02-11T02:18:37.686Z,25.07
2023-02-11T02:21:31.484Z,24.77
2023-02-11T02:24:36.706Z,23.60
2023-02-11T02:27:41.882Z,22.73
2023-02-11T02:30:49.730Z,27.07
2023-02-11T02:33:30.843Z,23.27
2023-02-11T02:36:10.821Z,24.77
2023-02-11T02:38:46.189Z,22.77
2023-02-11T02:41:17.904Z,26.37
2023-02-11T02:43:49.846Z,24.27
2023-02-11T02:46:22.404Z,25.10
2023-02-11T02:48:53.555Z,25.53
2023-02-11T02:51:43.906Z,26.93
2023-02-11T02:54:37.894Z,22.43
2023-02-11T02:57:21.351Z,21.70
2023-02-11T03:00:06.563Z,22.03
2023-02-11T03:02:40.722Z,24.63
2023-02-11T03:05:18.664Z,23.60
2023-02-11T03:07:52.830Z,22.90
2023-02-11T03:10:24.718Z,22.00
2023-02-11T03:12:55.081Z,23.77
2023-02-11T03:15:26.444Z,22.83
2023-02-11T03:17:57.723Z,23.30
2023-02-11T03:20:29.943Z,24.43
2023-02-11T03:23:04.331Z,23.90
2023-02-11T03:25:41.235Z,22.13
2023-02-11T03:28:17.498Z,23.70
2023-02-11T03:30:53.492Z,22.40
2023-02-11T03:33:29.456Z,23.20
2023-02-11T03:36:05.515Z,22.80
2023-02-11T03:38:38.731Z,22.00
2023-02-11T03:41:09.960Z,22.60
2023-02-11T03:43:43.254Z,23.90
2023-02-11T03:46:14.799Z,22.83
2023-02-11T03:48:47.272Z,24.97
2023-02-11T03:51:18.192Z,21.97
2023-02-11T03:53:58.285Z,21.10
2023-02-11T03:56:31.430Z,23.97
2023-02-11T03:59:00.142Z,23.43
2023-02-11T04:01:28.573Z,22.43
2023-02-11T04:03:56.831Z,21.60
2023-02-11T04:06:26.274Z,20.77
2023-02-11T04:08:54.502Z,22.90
2023-02-11T04:11:22.667Z,23.40
2023-02-11T04:13:50.871Z,22.77
2023-02-11T04:16:19.140Z,22.37
2023-02-11T04:18:47.351Z,25.00
2023-02-11T04:21:15.518Z,22.40
2023-02-11T04:23:45.013Z,23.23
2023-02-11T04:26:13.118Z,21.80
2023-02-11T04:28:41.436Z,21.20
2023-02-11T04:31:12.028Z,21.57
2023-02-11T04:33:40.278Z,21.10
2023-02-11T04:36:09.583Z,23.30
2023-02-11T04:38:37.828Z,21.90
2023-02-11T04:41:07.401Z,21.30
2023-02-11T04:43:35.823Z,23.20
2023-02-11T04:46:04.308Z,23.27
2023-02-11T04:48:32.568Z,23.20
2023-02-11T04:51:00.883Z,24.43
2023-02-11T04:53:29.147Z,21.60
2023-02-11T04:55:57.478Z,22.77
2023-02-11T04:58:27.154Z,22.30
2023-02-11T05:00:55.512Z,21.33
2023-02-11T05:03:23.757Z,22.07
2023-02-11T05:05:52.566Z,21.97
2023-02-11T05:08:20.887Z,22.37
2023-02-11T05:10:49.093Z,21.23
2023-02-11T05:13:17.269Z,19.53
2023-02-11T05:15:46.969Z,21.87
2023-02-11T05:18:15.573Z,22.73
2023-02-11T05:20:44.370Z,21.73
2023-02-11T05:23:13.287Z,21.83
2023-02-11T05:25:41.537Z,20.90
2023-02-11T05:28:09.882Z,20.20
2023-02-11T05:30:38.195Z,22.20
2023-02-11T05:33:07.707Z,21.20
2023-02-11T05:35:35.907Z,21.03
2023-02-11T05:38:04.267Z,19.47
2023-02-11T05:40:32.493Z,19.10
2023-02-11T05:43:00.683Z,18.60
2023-02-11T05:45:29.105Z,21.77
2023-02-11T05:47:57.776Z,19.80
2023-02-11T05:50:27.961Z,19.53
2023-02-11T05:52:56.396Z,20.00
2023-02-11T05:55:24.753Z,20.20
2023-02-11T05:57:52.993Z,20.13
2023-02-11T06:00:21.581Z,19.87
2023-02-11T06:02:49.823Z,23.00
2023-02-11T06:05:18.146Z,21.30
2023-02-11T06:07:47.736Z,19.10
2023-02-11T06:10:16.097Z,19.03
2023-02-11T06:12:44.845Z,21.90
2023-02-11T06:15:13.091Z,19.47
2023-02-11T06:17:41.348Z,20.63
2023-02-11T06:20:11.739Z,21.00
2023-02-11T06:22:40.141Z,21.90
2023-02-11T06:25:10.977Z,19.43
2023-02-11T06:27:39.834Z,20.20
2023-02-11T06:30:10.223Z,21.60
2023-02-11T06:32:44.470Z,20.43
2023-02-11T06:35:14.262Z,20.27
2023-02-11T06:37:42.798Z,20.80
2023-02-11T06:40:17.856Z,20.03
2023-02-11T06:42:46.481Z,19.53
2023-02-11T06:45:20.550Z,20.00
2023-02-11T06:51:36.055Z,22.60
2023-02-11T06:53:58.459Z,18.63
2023-02-11T06:56:28.203Z,18.90
2023-02-11T06:58:56.827Z,19.30
2023-02-11T07:01:27.238Z,22.53
2023-02-11T07:03:55.840Z,28.00
2023-02-11T07:06:28.268Z,22.50
2023-02-11T07:08:57.346Z,21.03
2023-02-11T07:11:30.567Z,20.67
2023-02-11T07:14:03.349Z,20.13
2023-02-11T07:16:32.498Z,20.70
2023-02-11T07:19:00.731Z,21.73
2023-02-11T07:21:29.494Z,20.67
2023-02-11T07:23:57.682Z,23.70
2023-02-11T07:26:28.850Z,35.40
2023-02-11T07:28:57.535Z,57.97
2023-02-11T07:31:28.352Z,47.50
2023-02-11T07:33:59.820Z,25.47
2023-02-11T07:36:29.913Z,21.03
2023-02-11T07:38:58.290Z,19.23
2023-02-11T07:41:29.482Z,18.50
2023-02-11T07:43:57.991Z,19.70
2023-02-11T07:46:28.679Z,20.77
2023-02-11T07:48:57.558Z,21.77
2023-02-11T07:51:28.596Z,21.17
2023-02-11T07:54:00.142Z,19.70
2023-02-11T07:56:31.037Z,21.93
2023-02-11T07:59:03.128Z,22.10
2023-02-11T08:01:32.702Z,21.80
2023-02-11T08:04:02.884Z,22.70
2023-02-11T08:06:34.574Z,19.57
2023-02-11T08:09:07.902Z,22.13
2023-02-11T08:11:37.563Z,24.63
2023-02-11T08:14:05.908Z,25.30
2023-02-11T08:16:37.484Z,23.90
2023-02-11T08:19:09.423Z,25.90
2023-02-11T08:21:37.641Z,23.73
2023-02-11T08:24:07.092Z,24.10
2023-02-11T08:26:37.747Z,20.50
2023-02-11T08:29:10.741Z,19.53
2023-02-11T08:31:41.752Z,22.30
2023-02-11T08:34:11.558Z,23.30
2023-02-11T08:36:42.047Z,21.80
2023-02-11T08:39:19.639Z,21.50
2023-02-11T08:41:52.626Z,22.07
2023-02-11T08:44:22.657Z,21.30
2023-02-11T08:46:51.935Z,21.73
2023-02-11T08:49:20.960Z,21.53
2023-02-11T08:51:49.921Z,19.33
2023-02-11T08:54:18.535Z,18.50
2023-02-11T08:56:47.042Z,21.50
2023-02-11T08:59:17.806Z,18.30
2023-02-11T09:01:47.399Z,18.80
2023-02-11T09:04:15.870Z,19.67
2023-02-11T09:06:44.506Z,22.77
2023-02-11T09:09:15.018Z,19.30
2023-02-11T09:11:45.595Z,18.60
2023-02-11T09:14:21.943Z,27.60
2023-02-11T09:16:51.526Z,29.20
2023-02-11T09:19:20.676Z,21.63
2023-02-11T09:21:49.129Z,19.53
2023-02-11T09:24:17.479Z,20.63
2023-02-11T09:26:45.758Z,19.00
2023-02-11T09:29:14.528Z,18.93
2023-02-11T09:31:44.262Z,16.30
2023-02-11T09:34:13.393Z,18.30
2023-02-11T09:36:42.844Z,19.67
2023-02-11T09:39:15.242Z,16.37
2023-02-11T09:42:12.196Z,17.60
2023-02-11T09:44:40.994Z,16.03
2023-02-11T09:47:26.975Z,15.30
2023-02-11T09:50:01.955Z,13.30
2023-02-11T09:52:39.288Z,12.03
2023-02-11T09:55:19.420Z,10.90
2023-02-11T09:57:48.024Z,10.10
2023-02-11T10:00:24.646Z,10.27
2023-02-11T10:03:21.915Z,16.70
2023-02-11T10:06:11.785Z,9.23
2023-02-11T10:08:52.013Z,14.33
2023-02-11T10:11:31.975Z,12.43
2023-02-11T10:14:17.203Z,12.40
2023-02-11T10:16:59.204Z,9.43
2023-02-11T10:19:44.026Z,12.70
2023-02-11T10:22:19.416Z,11.57
2023-02-11T10:24:58.330Z,9.77
2023-02-11T10:27:33.456Z,10.37
2023-02-11T10:30:07.406Z,10.20
2023-02-11T10:32:44.032Z,9.83
2023-02-11T10:35:17.985Z,9.20
2023-02-11T10:37:46.939Z,7.60
2023-02-11T10:40:17.108Z,8.00
2023-02-11T10:42:52.028Z,8.27
2023-02-11T10:45:29.685Z,7.63
2023-02-11T10:47:59.460Z,8.90
2023-02-11T10:50:32.488Z,8.60
2023-02-11T10:53:19.728Z,9.20
2023-02-11T10:55:53.762Z,7.93
2023-02-11T10:58:28.063Z,8.50
2023-02-11T11:01:01.787Z,9.40
2023-02-11T11:03:36.251Z,9.40
2023-02-11T11:06:12.937Z,9.40
2023-02-11T11:08:46.747Z,8.60
2023-02-11T11:11:17.545Z,8.03
2023-02-11T11:13:59.338Z,9.70
2023-02-11T11:16:29.859Z,9.33
2023-02-11T11:19:22.141Z,10.13
2023-02-11T11:21:54.319Z,11.57
2023-02-11T11:24:27.818Z,10.00
2023-02-11T11:27:00.892Z,9.10
2023-02-11T11:29:35.574Z,10.60
2023-02-11T11:32:07.987Z,10.93
2023-02-11T11:34:40.711Z,8.47
2023-02-11T11:37:16.154Z,9.77
2023-02-11T11:39:50.068Z,10.30
2023-02-11T11:42:28.447Z,25.90
2023-02-11T11:45:01.424Z,9.10
2023-02-11T11:47:41.338Z,8.53
2023-02-11T11:50:28.628Z,10.00
2023-02-11T11:53:06.372Z,10.20
2023-02-11T11:55:46.305Z,10.73
2023-02-11T11:58:18.916Z,10.60
2023-02-11T12:01:03.383Z,7.87
2023-02-11T12:04:12.914Z,10.10
2023-02-11T12:06:54.451Z,9.90
2023-02-11T12:09:35.253Z,9.47
2023-02-11T12:12:40.491Z,9.83
2023-02-11T12:15:31.660Z,10.80
2023-02-11T12:18:19.053Z,11.20
2023-02-11T12:21:03.791Z,10.50
2023-02-11T12:23:48.567Z,10.50
2023-02-11T12:26:21.693Z,9.70
2023-02-11T12:29:06.215Z,11.53
2023-02-11T12:31:53.296Z,9.03
2023-02-11T12:34:40.873Z,11.90
2023-02-11T12:37:23.351Z,11.43
2023-02-11T12:39:58.958Z,11.57
2023-02-11T12:43:02.389Z,13.20
2023-02-11T12:45:49.079Z,11.77
2023-02-11T12:48:36.004Z,12.47
2023-02-11T12:51:14.404Z,11.97
2023-02-11T12:54:02.071Z,11.77
2023-02-11T12:56:38.741Z,11.90
2023-02-11T12:59:18.761Z,12.07
2023-02-11T13:01:48.987Z,10.97
2023-02-11T13:04:23.120Z,11.57
2023-02-11T13:06:56.985Z,11.97
2023-02-11T13:09:31.553Z,10.37
2023-02-11T13:12:25.592Z,9.70
2023-02-11T13:15:00.821Z,10.70
2023-02-11T13:17:38.069Z,11.10
2023-02-11T13:20:22.870Z,13.47
2023-02-11T13:23:01.868Z,12.63
2023-02-11T13:25:37.724Z,12.43
2023-02-11T13:28:22.011Z,11.70
2023-02-11T13:31:02.062Z,12.10
2023-02-11T13:33:35.974Z,9.93
2023-02-11T13:36:24.779Z,12.20
2023-02-11T13:39:05.780Z,10.63
2023-02-11T13:41:41.067Z,10.73
2023-02-11T13:44:28.768Z,10.37
2023-02-11T13:47:04.745Z,10.27
2023-02-11T13:49:41.298Z,10.90
2023-02-11T13:52:24.648Z,12.13
2023-02-11T13:54:56.839Z,11.40
2023-02-11T13:57:38.237Z,9.23
2023-02-11T14:00:48.302Z,12.40
2023-02-11T14:03:52.328Z,11.17
2023-02-11T14:06:43.108Z,11.50
2023-02-11T14:09:40.862Z,10.53
2023-02-11T14:12:35.498Z,11.10
2023-02-11T14:15:40.751Z,11.73
2023-02-11T14:18:59.563Z,9.53
2023-02-11T14:21:36.791Z,12.10
2023-02-11T14:24:47.462Z,10.77
2023-02-11T14:27:25.353Z,11.23
2023-02-11T14:30:28.573Z,10.43
2023-02-11T14:33:22.679Z,11.30
2023-02-11T14:36:06.745Z,12.50
2023-02-11T14:38:49.433Z,12.37
2023-02-11T14:41:22.692Z,13.23
2023-02-11T14:43:55.689Z,12.27
2023-02-11T14:46:25.060Z,12.63
2023-02-11T14:48:57.184Z,12.27
2023-02-11T14:51:31.225Z,10.30
2023-02-11T14:54:05.800Z,10.40
2023-02-11T14:56:34.722Z,10.70
2023-02-11T14:59:03.613Z,11.87
2023-02-11T15:01:35.435Z,10.30
2023-02-11T15:04:05.926Z,9.43
2023-02-11T15:06:39.638Z,11.17
2023-02-11T15:09:17.213Z,10.80
2023-02-11T15:11:48.649Z,15.50
2023-02-11T15:14:25.087Z,12.30
2023-02-11T15:16:55.627Z,12.27
2023-02-11T15:19:33.041Z,12.57
2023-02-11T15:22:07.252Z,9.60
2023-02-11T15:24:39.040Z,12.33
2023-02-11T15:27:15.473Z,11.87
2023-02-11T15:29:47.099Z,12.37
2023-02-11T15:32:18.109Z,11.40
2023-02-11T15:34:48.466Z,11.90
2023-02-11T15:37:22.586Z,11.17
2023-02-11T15:39:51.949Z,13.73
2023-02-11T15:42:26.733Z,13.93
2023-02-11T15:45:25.849Z,13.53
2023-02-11T15:48:00.843Z,14.37
2023-02-11T15:50:32.754Z,14.07
2023-02-11T15:53:07.212Z,13.37
2023-02-11T15:55:36.578Z,13.40
2023-02-11T15:58:04.991Z,14.17
2023-02-11T16:00:38.516Z,12.93
2023-02-11T16:03:06.836Z,11.97
2023-02-11T16:05:38.553Z,12.37
2023-02-11T16:08:24.692Z,13.23
2023-02-11T16:10:58.918Z,14.40
2023-02-11T16:13:30.201Z,14.30
2023-02-11T16:16:02.310Z,13.40
2023-02-11T16:18:39.340Z,14.17
2023-02-11T16:21:15.868Z,14.17
2023-02-11T16:23:52.812Z,15.47
2023-02-11T16:26:30.542Z,12.97
2023-02-11T16:29:14.287Z,16.37
2023-02-11T16:31:45.588Z,14.10
2023-02-11T16:34:17.597Z,14.80
2023-02-11T16:36:46.394Z,17.20
2023-02-11T16:39:17.165Z,17.07
2023-02-11T16:41:45.941Z,16.73
2023-02-11T16:44:14.087Z,16.60
2023-02-11T16:46:42.332Z,13.90
2023-02-11T16:49:17.071Z,22.90
2023-02-11T16:51:49.003Z,16.77
2023-02-11T16:54:20.370Z,14.97
2023-02-11T16:56:48.607Z,16.47
2023-02-11T16:59:18.507Z,13.73
2023-02-11T17:01:48.739Z,14.73
2023-02-11T17:04:21.211Z,15.33
2023-02-11T17:06:49.511Z,12.80
2023-02-11T17:09:22.736Z,15.00
2023-02-11T17:11:51.976Z,18.27
2023-02-11T17:14:21.424Z,18.27
2023-02-11T17:16:49.813Z,14.20
2023-02-11T17:19:21.728Z,15.20
2023-02-11T17:21:52.600Z,16.90
2023-02-11T17:24:23.162Z,15.90
2023-02-11T17:26:52.081Z,17.17
2023-02-11T17:29:23.265Z,18.23
2023-02-11T17:31:52.391Z,18.17
2023-02-11T17:34:21.716Z,17.97
2023-02-11T17:36:50.966Z,16.90
2023-02-11T17:39:20.963Z,15.80
2023-02-11T17:41:50.503Z,16.67
2023-02-11T17:44:18.698Z,16.17
2023-02-11T17:46:46.895Z,15.73
2023-02-11T17:49:15.757Z,13.90
2023-02-11T17:51:44.132Z,18.23
2023-02-11T17:54:18.302Z,20.03
2023-02-11T17:56:50.549Z,17.80
2023-02-11T17:59:20.327Z,19.20
2023-02-11T18:01:48.848Z,20.10
2023-02-11T18:04:20.106Z,18.63
2023-02-11T18:06:48.518Z,22.53
2023-02-11T18:09:16.650Z,22.90
2023-02-11T18:11:44.872Z,20.93
2023-02-11T18:14:13.421Z,18.53
2023-02-11T18:16:44.821Z,19.53
2023-02-11T18:19:14.557Z,19.17
2023-02-11T18:21:42.682Z,18.83
2023-02-11T18:24:12.502Z,20.00
2023-02-11T18:26:41.633Z,19.37
2023-02-11T18:29:10.126Z,19.57
2023-02-11T18:31:39.333Z,15.90
2023-02-11T18:34:10.660Z,14.57
2023-02-11T18:36:39.620Z,17.20
2023-02-11T18:39:08.088Z,15.17
2023-02-11T18:41:36.186Z,16.30
2023-02-11T18:44:05.049Z,15.80
2023-02-11T18:46:33.245Z,16.97
2023-02-11T18:49:01.759Z,15.00
2023-02-11T18:51:32.491Z,15.23
2023-02-11T18:54:01.134Z,16.57
2023-02-11T18:56:29.440Z,18.67
2023-02-11T18:59:01.386Z,17.73
2023-02-11T19:01:31.664Z,17.97
2023-02-11T19:04:03.449Z,18.17
2023-02-11T19:06:36.388Z,18.60
2023-02-11T19:09:10.284Z,18.33
2023-02-11T19:11:50.252Z,17.37
2023-02-11T19:14:24.710Z,17.80
2023-02-11T19:16:54.954Z,19.00
2023-02-11T19:19:25.186Z,18.83
2023-02-11T19:21:56.025Z,18.03
2023-02-11T19:24:25.977Z,17.70
2023-02-11T19:26:58.415Z,16.27
2023-02-11T19:29:26.962Z,16.60
2023-02-11T19:31:56.074Z,17.13
2023-02-11T19:34:24.420Z,18.10
2023-02-11T19:36:54.752Z,17.30
2023-02-11T19:39:24.670Z,16.77
2023-02-11T19:41:52.919Z,16.57
2023-02-11T19:44:21.210Z,16.03
2023-02-11T19:46:50.194Z,20.00
2023-02-11T19:49:23.205Z,18.80
2023-02-11T19:51:52.072Z,20.60
2023-02-11T19:54:22.697Z,19.10
2023-02-11T19:56:50.923Z,17.20
2023-02-11T19:59:19.865Z,18.17
2023-02-11T20:01:49.360Z,24.53
2023-02-11T20:04:18.182Z,28.90
2023-02-11T20:06:48.037Z,36.40
2023-02-11T20:09:16.940Z,31.27
2023-02-11T20:11:46.917Z,27.13
2023-02-11T20:14:15.766Z,23.80
2023-02-11T20:16:49.466Z,24.07
2023-02-11T20:19:20.455Z,21.30
2023-02-11T20:21:52.232Z,19.87
2023-02-11T20:24:21.371Z,19.23
2023-02-11T20:26:55.734Z,20.83
2023-02-11T20:29:25.845Z,20.80
2023-02-11T20:31:54.738Z,19.87
2023-02-11T20:34:23.258Z,19.80
2023-02-11T20:36:52.767Z,19.03
2023-02-11T20:39:22.221Z,19.90
2023-02-11T20:41:53.884Z,17.23
2023-02-11T20:44:22.862Z,16.77
2023-02-11T20:46:51.628Z,17.50
2023-02-11T20:49:23.046Z,17.13
2023-02-11T20:51:53.548Z,16.50
2023-02-11T20:54:23.607Z,17.63
2023-02-11T20:56:54.090Z,17.10
2023-02-11T20:59:22.721Z,39.40
2023-02-11T21:01:55.473Z,20.17
2023-02-11T21:04:25.914Z,17.57
2023-02-11T21:06:58.884Z,18.10
2023-02-11T21:09:31.020Z,17.60
2023-02-11T21:12:01.223Z,16.90
2023-02-11T21:14:30.444Z,18.53
2023-02-11T21:16:58.928Z,20.00
2023-02-11T21:19:27.348Z,20.50
2023-02-11T21:21:57.465Z,19.37
2023-02-11T21:24:25.784Z,18.87
2023-02-11T21:26:53.940Z,19.10
2023-02-11T21:29:23.895Z,18.60
2023-02-11T21:31:52.775Z,19.00
2023-02-11T21:34:21.212Z,21.03
2023-02-11T21:36:51.121Z,20.83
2023-02-11T21:39:20.296Z,22.47
2023-02-11T21:41:48.466Z,20.33
2023-02-11T21:44:16.858Z,23.00
2023-02-11T21:46:46.494Z,21.97
2023-02-11T21:49:14.785Z,21.30
2023-02-11T21:51:43.068Z,23.10
2023-02-11T21:54:13.000Z,20.87
2023-02-11T21:56:41.512Z,20.60
2023-02-11T21:59:12.991Z,21.53
2023-02-11T22:01:41.378Z,21.33
2023-02-11T22:04:11.163Z,21.40
2023-02-11T22:06:39.710Z,20.20
2023-02-11T22:09:10.808Z,21.17
2023-02-11T22:11:39.286Z,20.87
2023-02-11T22:14:08.804Z,21.80
2023-02-11T22:16:37.466Z,22.47
2023-02-11T22:19:07.329Z,19.70
2023-02-11T22:21:37.718Z,20.30
2023-02-11T22:24:07.107Z,21.57
2023-02-11T22:26:35.552Z,19.63
2023-02-11T22:29:03.825Z,19.00
2023-02-11T22:31:34.781Z,21.37
2023-02-11T22:34:05.649Z,21.07
2023-02-11T22:36:37.606Z,23.43
2023-02-11T22:39:09.271Z,21.10
2023-02-11T22:41:38.325Z,24.07
2023-02-11T22:44:06.710Z,22.63
2023-02-11T22:46:35.244Z,20.43
2023-02-11T22:49:03.822Z,20.40
2023-02-11T22:51:32.812Z,21.80
2023-02-11T22:54:04.899Z,19.97
2023-02-11T22:56:35.204Z,20.03
2023-02-11T22:59:07.401Z,20.60
2023-02-11T23:01:36.287Z,20.60
2023-02-11T23:04:07.049Z,20.27
2023-02-11T23:06:36.043Z,20.53
2023-02-11T23:09:06.902Z,19.80
2023-02-11T23:11:35.315Z,20.23
2023-02-11T23:14:04.229Z,21.73
2023-02-11T23:16:35.426Z,21.27
2023-02-11T23:19:08.310Z,20.07
2023-02-11T23:21:39.803Z,21.30
2023-02-11T23:24:14.166Z,20.57
2023-02-11T23:26:44.977Z,20.80
2023-02-11T23:29:13.841Z,21.00
2023-02-11T23:31:45.880Z,20.47
2023-02-11T23:34:17.195Z,21.80
2023-02-11T23:36:45.476Z,22.90
2023-02-11T23:39:17.900Z,23.50
2023-02-11T23:41:46.806Z,24.00
2023-02-11T23:44:15.055Z,23.00
2023-02-11T23:46:43.231Z,21.53
2023-02-11T23:49:11.451Z,23.87
2023-02-11T23:51:39.757Z,20.00
2023-02-11T23:54:07.997Z,20.70
2023-02-11T23:56:38.929Z,19.43
2023-02-11T23:59:07.192Z,22.67
